createdAt,value
2023-11-07T00:00:42.232Z,7.13
2023-11-07T00:03:12.529Z,8.67
2023-11-07T00:05:40.378Z,9.70
2023-11-07T00:08:07.849Z,7.37
2023-11-07T00:10:39.298Z,8.33
2023-11-07T00:13:07.691Z,6.63
2023-11-07T00:15:36.385Z,6.63
2023-11-07T00:18:03.850Z,5.73
2023-11-07T00:20:32.837Z,6.30
2023-11-07T00:23:00.582Z,5.87
2023-11-07T00:25:28.059Z,6.17
2023-11-07T00:27:55.166Z,12.20
2023-11-07T00:30:23.439Z,5.73
2023-11-07T00:32:53.891Z,7.50
2023-11-07T00:35:21.162Z,7.83
2023-11-07T00:37:48.353Z,7.60
2023-11-07T00:40:15.899Z,9.17
2023-11-07T00:42:43.745Z,6.73
2023-11-07T00:45:12.216Z,8.00
2023-11-07T00:47:39.616Z,9.20
2023-11-07T00:50:11.814Z,10.80
2023-11-07T00:52:39.893Z,11.83
2023-11-07T00:55:09.464Z,10.33
2023-11-07T00:57:37.796Z,10.37
2023-11-07T01:00:10.573Z,8.53
2023-11-07T01:02:40.643Z,11.53
2023-11-07T01:05:09.197Z,9.83
2023-11-07T01:07:38.222Z,11.73
2023-11-07T01:10:05.839Z,8.13
2023-11-07T01:12:33.791Z,8.83
2023-11-07T01:15:01.080Z,8.67
2023-11-07T01:17:29.846Z,8.40
2023-11-07T01:19:57.443Z,7.70
2023-11-07T01:22:26.956Z,9.10
2023-11-07T01:24:54.919Z,9.33
2023-11-07T01:27:22.421Z,7.60
2023-11-07T01:29:51.157Z,8.30
2023-11-07T01:32:20.681Z,8.13
2023-11-07T01:34:49.368Z,6.63
2023-11-07T01:37:17.676Z,5.53
2023-11-07T01:39:45.274Z,6.03
2023-11-07T01:42:13.980Z,5.97
2023-11-07T01:44:51.265Z,7.53
2023-11-07T01:47:24.879Z,6.33
2023-11-07T01:49:52.942Z,8.13
2023-11-07T01:52:21.528Z,6.73
2023-11-07T01:54:54.842Z,10.53
2023-11-07T01:57:23.824Z,8.07
2023-11-07T01:59:54.361Z,6.37
2023-11-07T02:02:23.912Z,7.50
2023-11-07T02:04:51.555Z,8.07
2023-11-07T02:07:19.621Z,6.90
2023-11-07T02:09:47.019Z,4.83
2023-11-07T02:12:14.618Z,10.17
2023-11-07T02:14:42.688Z,6.77
2023-11-07T02:17:11.098Z,7.87
2023-11-07T02:19:40.435Z,4.67
2023-11-07T02:22:27.583Z,8.10
2023-11-07T02:24:54.655Z,5.57
2023-11-07T02:27:23.683Z,7.50
2023-11-07T02:29:51.771Z,6.87
2023-11-07T02:32:23.930Z,7.13
2023-11-07T02:34:55.043Z,9.60
2023-11-07T02:37:22.469Z,8.87
2023-11-07T02:39:50.357Z,5.60
2023-11-07T02:42:18.428Z,6.90
2023-11-07T02:44:46.019Z,4.80
2023-11-07T02:47:14.216Z,7.70
2023-11-07T02:49:41.402Z,5.50
2023-11-07T02:52:08.732Z,7.40
2023-11-07T02:54:36.158Z,6.07
2023-11-07T02:57:04.559Z,6.53
2023-11-07T02:59:32.952Z,7.73
2023-11-07T03:02:04.771Z,9.93
2023-11-07T03:04:33.990Z,7.63
2023-11-07T03:07:02.061Z,5.13
2023-11-07T03:09:29.335Z,6.23
2023-11-07T03:11:56.603Z,5.50
2023-11-07T03:14:24.282Z,8.40
2023-11-07T03:16:53.254Z,5.20
2023-11-07T03:19:20.496Z,9.27
2023-11-07T03:21:47.606Z,10.70
2023-11-07T03:24:16.396Z,9.27
2023-11-07T03:26:45.427Z,8.00
2023-11-07T03:29:13.013Z,7.57
2023-11-07T03:31:41.396Z,11.47
2023-11-07T03:34:10.557Z,6.73
2023-11-07T03:36:39.904Z,8.80
2023-11-07T03:39:07.828Z,6.23
2023-11-07T03:41:35.498Z,7.47
2023-11-07T03:44:02.838Z,6.90
2023-11-07T03:46:31.446Z,9.70
2023-11-07T03:48:59.631Z,10.03
2023-11-07T03:51:27.307Z,8.70
2023-11-07T03:53:55.584Z,5.70
2023-11-07T03:56:24.129Z,8.67
2023-11-07T03:58:53.525Z,6.60
2023-11-07T04:01:20.743Z,7.90
2023-11-07T04:03:49.077Z,4.97
2023-11-07T04:06:16.647Z,12.13
2023-11-07T04:08:44.006Z,6.97
2023-11-07T04:11:11.422Z,6.43
2023-11-07T04:13:38.601Z,12.43
2023-11-07T04:16:07.354Z,9.93
2023-11-07T04:18:34.903Z,7.37
2023-11-07T04:21:05.571Z,13.27
2023-11-07T04:23:33.389Z,14.87
2023-11-07T04:26:02.813Z,6.93
2023-11-07T04:28:32.409Z,9.43
2023-11-07T04:31:00.849Z,9.97
2023-11-07T04:33:29.030Z,13.03
2023-11-07T04:35:56.340Z,4.87
2023-11-07T04:38:23.634Z,6.47
2023-11-07T04:40:50.776Z,10.83
2023-11-07T04:43:17.855Z,4.97
2023-11-07T04:45:45.022Z,5.27
2023-11-07T04:48:13.599Z,11.60
2023-11-07T04:50:41.777Z,7.37
2023-11-07T04:53:14.429Z,6.37
2023-11-07T04:55:42.980Z,7.57
2023-11-07T04:58:11.592Z,6.73
2023-11-07T05:00:39.983Z,3.30
2023-11-07T05:03:07.807Z,8.97
2023-11-07T05:05:36.615Z,5.97
2023-11-07T05:08:04.843Z,9.80
2023-11-07T05:10:37.729Z,5.87
2023-11-07T05:13:08.694Z,5.83
2023-11-07T05:15:46.529Z,10.20
2023-11-07T05:18:16.996Z,7.90
2023-11-07T05:20:45.929Z,5.87
2023-11-07T05:23:14.895Z,8.57
2023-11-07T05:25:48.684Z,18.00
2023-11-07T05:28:19.985Z,7.33
2023-11-07T05:30:47.319Z,8.40
2023-11-07T05:33:14.782Z,7.47
2023-11-07T05:35:47.929Z,5.87
2023-11-07T05:38:16.873Z,14.23
2023-11-07T05:40:44.740Z,6.40
2023-11-07T05:43:13.551Z,7.70
2023-11-07T05:45:42.854Z,6.07
2023-11-07T05:48:10.159Z,6.03
2023-11-07T05:50:38.684Z,10.33
2023-11-07T05:53:07.045Z,8.87
2023-11-07T05:55:35.224Z,9.27
2023-11-07T05:58:02.485Z,8.93
2023-11-07T06:00:30.119Z,11.87
2023-11-07T06:02:57.731Z,6.70
2023-11-07T06:05:25.061Z,10.33
2023-11-07T06:07:57.309Z,12.97
2023-11-07T06:10:27.396Z,5.33
2023-11-07T06:12:54.468Z,7.57
2023-11-07T06:15:22.072Z,8.57
2023-11-07T06:17:49.451Z,7.47
2023-11-07T06:20:19.767Z,6.93
2023-11-07T06:22:47.562Z,7.87
2023-11-07T06:25:17.999Z,8.17
2023-11-07T06:27:45.276Z,7.00
2023-11-07T06:30:14.065Z,9.23
2023-11-07T06:32:41.556Z,12.20
2023-11-07T06:35:11.246Z,8.27
2023-11-07T06:37:43.909Z,6.80
2023-11-07T06:40:17.382Z,7.13
2023-11-07T06:42:48.633Z,8.50
2023-11-07T06:45:21.373Z,6.23
2023-11-07T06:47:53.843Z,11.47
2023-11-07T06:50:24.082Z,9.63
2023-11-07T06:52:57.169Z,9.60
2023-11-07T06:55:41.340Z,8.40
2023-11-07T06:58:13.064Z,8.03
2023-11-07T07:01:13.395Z,5.10
2023-11-07T07:03:47.475Z,8.07
2023-11-07T07:06:17.610Z,12.17
2023-11-07T07:08:44.923Z,8.03
2023-11-07T07:11:15.904Z,13.57
2023-11-07T07:13:43.253Z,9.87
2023-11-07T07:16:15.027Z,8.07
2023-11-07T07:18:44.060Z,8.00
2023-11-07T07:21:12.502Z,10.63
2023-11-07T07:23:48.847Z,7.63
2023-11-07T07:26:20.138Z,11.10
2023-11-07T07:28:48.231Z,8.87
2023-11-07T07:31:21.324Z,8.17
2023-11-07T07:33:48.598Z,9.07
2023-11-07T07:36:19.543Z,9.67
2023-11-07T07:39:38.634Z,8.60
2023-11-07T07:42:15.442Z,6.07
2023-11-07T07:44:55.236Z,7.67
2023-11-07T07:47:26.432Z,9.80
2023-11-07T07:49:56.307Z,16.30
2023-11-07T07:52:25.155Z,10.07
2023-11-07T07:55:07.129Z,7.83
2023-11-07T07:57:43.442Z,8.83
2023-11-07T08:00:26.025Z,11.33
2023-11-07T08:02:58.877Z,12.90
2023-11-07T08:05:32.911Z,12.20
2023-11-07T08:08:02.801Z,16.20
2023-11-07T08:10:30.514Z,11.20
2023-11-07T08:13:02.993Z,17.93
2023-11-07T08:15:31.966Z,12.23
2023-11-07T08:18:09.785Z,11.93
2023-11-07T08:20:46.545Z,12.90
2023-11-07T08:23:35.035Z,10.17
2023-11-07T08:26:11.611Z,8.87
2023-11-07T08:28:44.980Z,12.80
2023-11-07T08:31:15.717Z,6.13
2023-11-07T08:33:45.568Z,10.00
2023-11-07T08:36:15.681Z,9.20
2023-11-07T08:38:47.617Z,9.40
2023-11-07T08:41:21.710Z,13.20
2023-11-07T08:43:50.550Z,9.93
2023-11-07T08:46:39.102Z,11.00
2023-11-07T08:49:36.870Z,20.03
2023-11-07T08:52:13.896Z,11.57
2023-11-07T08:54:44.395Z,11.30
2023-11-07T08:57:12.947Z,9.03
2023-11-07T08:59:46.809Z,10.60
2023-11-07T09:02:17.811Z,12.33
2023-11-07T09:07:36.871Z,7.77
2023-11-07T09:10:04.566Z,12.03
2023-11-07T09:12:33.487Z,8.10
2023-11-07T09:15:06.892Z,9.73
2023-11-07T09:17:40.182Z,11.13
2023-11-07T09:20:13.491Z,13.10
2023-11-07T09:22:43.600Z,11.30
2023-11-07T09:25:19.021Z,11.83
2023-11-07T09:28:01.774Z,13.13
2023-11-07T09:30:49.471Z,8.33
2023-11-07T09:33:17.854Z,8.83
2023-11-07T09:35:44.998Z,8.30
2023-11-07T09:38:12.604Z,11.67
2023-11-07T09:40:45.695Z,18.20
2023-11-07T09:43:13.745Z,10.77
2023-11-07T09:45:42.456Z,15.20
2023-11-07T09:48:12.129Z,10.50
2023-11-07T09:50:47.812Z,11.80
2023-11-07T09:53:19.160Z,8.30
2023-11-07T09:55:51.077Z,10.70
2023-11-07T09:58:29.620Z,15.00
2023-11-07T10:01:01.062Z,13.50
2023-11-07T10:03:33.067Z,10.13
2023-11-07T10:06:04.929Z,9.13
2023-11-07T10:08:35.747Z,16.13
2023-11-07T10:11:17.651Z,11.93
2023-11-07T10:14:04.553Z,15.57
2023-11-07T10:16:43.747Z,15.37
2023-11-07T10:19:17.896Z,18.30
2023-11-07T10:21:48.394Z,12.93
2023-11-07T10:24:18.435Z,15.33
2023-11-07T10:27:00.548Z,14.10
2023-11-07T10:29:38.250Z,13.97
2023-11-07T10:32:16.914Z,15.20
2023-11-07T10:34:45.938Z,15.53
2023-11-07T10:37:13.200Z,10.37
2023-11-07T10:39:41.469Z,14.57
2023-11-07T10:42:21.033Z,10.67
2023-11-07T10:45:02.272Z,16.30
2023-11-07T10:47:47.235Z,14.37
2023-11-07T10:50:18.958Z,14.10
2023-11-07T10:52:49.436Z,11.90
2023-11-07T10:55:19.806Z,11.80
2023-11-07T10:57:59.511Z,13.77
2023-11-07T11:01:03.432Z,12.27
2023-11-07T11:04:10.544Z,12.57
2023-11-07T11:06:43.296Z,14.23
2023-11-07T11:09:12.409Z,13.67
2023-11-07T11:11:43.225Z,14.13
2023-11-07T11:14:10.944Z,14.47
2023-11-07T11:16:42.400Z,14.80
2023-11-07T11:19:55.168Z,12.50
2023-11-07T11:22:43.677Z,17.27
2023-11-07T11:25:38.423Z,13.07
2023-11-07T11:28:06.927Z,14.10
2023-11-07T11:30:40.144Z,14.53
2023-11-07T11:33:16.082Z,13.80
2023-11-07T11:35:47.984Z,16.80
2023-11-07T11:38:17.768Z,12.83
2023-11-07T11:41:05.628Z,11.50
2023-11-07T11:43:43.562Z,11.67
2023-11-07T11:46:14.766Z,12.20
2023-11-07T11:48:52.483Z,15.30
2023-11-07T11:52:16.728Z,15.47
2023-11-07T12:04:41.960Z,16.20
2023-11-07T12:07:33.919Z,10.37
2023-11-07T12:10:08.191Z,15.87
2023-11-07T12:12:39.102Z,17.83
2023-11-07T12:15:24.373Z,15.10
2023-11-07T12:17:53.432Z,16.13
2023-11-07T12:20:21.122Z,10.77
2023-11-07T12:22:52.413Z,18.47
2023-11-07T12:25:23.541Z,11.17
2023-11-07T12:28:07.899Z,13.00
2023-11-07T12:30:40.555Z,14.70
2023-11-07T12:33:11.064Z,9.07
2023-11-07T12:35:42.120Z,15.33
2023-11-07T12:38:11.904Z,12.53
2023-11-07T12:40:41.589Z,14.23
2023-11-07T12:43:10.098Z,15.47
2023-11-07T12:45:41.087Z,13.73
2023-11-07T12:48:12.160Z,11.80
2023-11-07T12:50:45.621Z,8.87
2023-11-07T12:53:19.406Z,12.50
2023-11-07T12:55:55.986Z,19.17
2023-11-07T12:58:31.715Z,15.43
2023-11-07T13:01:02.125Z,15.60
2023-11-07T13:03:35.183Z,10.67
2023-11-07T13:06:45.912Z,13.07
2023-11-07T13:09:33.530Z,16.47
2023-11-07T13:15:32.660Z,12.07
2023-11-07T13:18:26.373Z,9.97
2023-11-07T13:21:21.721Z,16.27
2023-11-07T13:23:55.304Z,16.20
2023-11-07T13:26:35.019Z,16.30
2023-11-07T13:29:07.555Z,11.20
2023-11-07T13:31:37.267Z,10.20
2023-11-07T13:34:07.060Z,11.57
2023-11-07T13:36:36.378Z,10.73
2023-11-07T13:39:06.516Z,11.23
2023-11-07T13:41:37.861Z,20.20
2023-11-07T13:44:07.936Z,20.60
2023-11-07T13:46:38.460Z,11.93
2023-11-07T13:49:10.553Z,9.77
2023-11-07T13:51:42.713Z,11.63
2023-11-07T13:54:11.015Z,10.03
2023-11-07T13:56:42.149Z,12.57
2023-11-07T13:59:10.154Z,14.67
2023-11-07T14:01:41.908Z,20.67
2023-11-07T14:04:10.936Z,10.07
2023-11-07T14:06:39.885Z,15.03
2023-11-07T14:09:11.308Z,10.77
2023-11-07T14:11:43.828Z,12.97
2023-11-07T14:14:13.110Z,14.70
2023-11-07T14:16:49.577Z,8.80
2023-11-07T14:19:19.536Z,12.03
2023-11-07T14:21:48.636Z,9.50
2023-11-07T14:24:18.240Z,11.77
2023-11-07T14:26:46.337Z,8.43
2023-11-07T14:31:47.140Z,11.23
2023-11-07T14:34:15.811Z,14.93
2023-11-07T14:36:44.688Z,8.57
2023-11-07T14:39:14.144Z,24.63
2023-11-07T14:41:44.381Z,13.47
2023-11-07T14:44:16.553Z,14.83
2023-11-07T14:46:47.483Z,14.77
2023-11-07T14:49:18.968Z,15.63
2023-11-07T14:51:48.067Z,14.47
2023-11-07T14:54:15.554Z,8.67
2023-11-07T15:00:10.712Z,18.00
2023-11-07T15:02:39.837Z,16.70
2023-11-07T15:05:13.592Z,12.40
2023-11-07T15:13:43.244Z,13.10
2023-11-07T15:16:12.247Z,18.77
2023-11-07T15:18:44.026Z,13.33
2023-11-07T15:21:13.001Z,13.93
2023-11-07T15:23:41.193Z,33.77
2023-11-07T15:26:09.920Z,11.17
2023-11-07T15:28:40.813Z,7.97
2023-11-07T15:31:08.539Z,12.60
2023-11-07T15:33:49.178Z,11.33
2023-11-07T15:36:20.267Z,11.47
2023-11-07T15:38:50.862Z,26.77
2023-11-07T15:41:18.978Z,18.30
2023-11-07T15:43:57.984Z,10.73
2023-11-07T15:46:27.382Z,13.80
2023-11-07T15:48:55.020Z,12.57
2023-11-07T15:51:24.585Z,13.17
2023-11-07T15:53:55.126Z,13.50
2023-11-07T15:56:23.056Z,15.53
2023-11-07T15:58:50.153Z,17.50
2023-11-07T16:01:19.203Z,14.07
2023-11-07T16:03:48.092Z,15.27
2023-11-07T16:06:21.066Z,14.53
2023-11-07T16:08:50.576Z,15.47
2023-11-07T16:11:18.004Z,14.43
2023-11-07T16:13:46.211Z,13.90
2023-11-07T16:16:14.636Z,13.67
2023-11-07T16:18:42.032Z,14.90
2023-11-07T16:21:10.300Z,15.87
2023-11-07T16:23:37.349Z,12.50
2023-11-07T16:26:05.508Z,23.30
2023-11-07T16:28:32.589Z,18.00
2023-11-07T16:31:00.782Z,12.83
2023-11-07T16:33:28.684Z,14.70
2023-11-07T16:36:07.431Z,18.27
2023-11-07T16:38:34.682Z,16.27
2023-11-07T16:41:02.016Z,19.43
2023-11-07T16:54:03.770Z,10.63
2023-11-07T16:56:32.095Z,12.53
2023-11-07T16:59:00.563Z,20.83
2023-11-07T17:01:31.742Z,19.77
2023-11-07T17:03:59.319Z,16.80
2023-11-07T17:23:13.693Z,27.27
2023-11-07T17:25:46.073Z,30.10
2023-11-07T17:28:13.848Z,27.87
2023-11-07T17:30:44.516Z,24.90
2023-11-07T17:33:13.517Z,17.80
2023-11-07T17:35:43.532Z,23.53
2023-11-07T17:38:15.404Z,14.73
2023-11-07T17:40:43.002Z,11.97
2023-11-07T17:46:41.146Z,15.83
2023-11-07T17:49:13.039Z,21.43
2023-11-07T17:51:44.953Z,19.97
2023-11-07T17:54:19.406Z,18.47
2023-11-07T17:56:46.931Z,15.30
2023-11-07T17:59:16.026Z,12.27
2023-11-07T18:01:49.823Z,15.43
2023-11-07T18:04:17.027Z,12.57
2023-11-07T18:06:49.265Z,12.77
2023-11-07T18:09:16.786Z,9.03
2023-11-07T18:11:48.487Z,15.03
2023-11-07T18:14:18.128Z,17.50
2023-11-07T18:16:47.693Z,18.55
2023-11-07T18:19:15.384Z,14.47
2023-11-07T18:21:46.218Z,11.67
2023-11-07T18:24:13.449Z,13.57
2023-11-07T18:26:47.605Z,14.37
2023-11-07T18:29:17.510Z,12.43
2023-11-07T18:31:49.569Z,12.33
2023-11-07T18:34:23.256Z,18.00
2023-11-07T18:37:08.434Z,13.80
2023-11-07T18:39:37.579Z,17.43
2023-11-07T18:42:05.398Z,17.93
2023-11-07T18:44:37.049Z,17.53
2023-11-07T18:47:05.218Z,19.20
2023-11-07T18:49:36.987Z,23.20
2023-11-07T18:52:06.390Z,21.33
2023-11-07T18:54:34.798Z,20.90
2023-11-07T18:57:16.178Z,19.67
2023-11-07T18:59:44.691Z,19.70
2023-11-07T19:02:14.780Z,21.77
2023-11-07T19:04:44.500Z,18.33
2023-11-07T19:07:13.886Z,22.37
2023-11-07T19:09:42.178Z,18.17
2023-11-07T19:12:09.665Z,18.53
2023-11-07T19:14:42.380Z,21.73
2023-11-07T19:17:15.447Z,20.73
2023-11-07T19:19:43.558Z,23.17
2023-11-07T19:22:19.531Z,29.90
2023-11-07T19:24:59.168Z,24.67
2023-11-07T19:27:27.034Z,32.70
2023-11-07T19:29:56.327Z,27.23
2023-11-07T19:33:22.198Z,43.53
2023-11-07T19:35:50.873Z,20.63
2023-11-07T19:38:20.021Z,20.47
2023-11-07T19:45:12.185Z,17.07
2023-11-07T19:47:39.873Z,19.17
2023-11-07T19:50:13.123Z,13.10
2023-11-07T19:52:46.165Z,12.60
2023-11-07T19:55:16.217Z,24.40
2023-11-07T19:57:45.048Z,15.83
2023-11-07T20:00:25.311Z,19.47
2023-11-07T20:02:54.143Z,13.90
2023-11-07T20:05:24.783Z,15.50
2023-11-07T20:07:57.086Z,16.83
2023-11-07T20:10:27.333Z,9.90
2023-11-07T20:12:54.401Z,12.60
2023-11-07T20:15:21.675Z,10.97
2023-11-07T20:18:41.051Z,14.00
2023-11-07T20:21:08.455Z,13.07
2023-11-07T20:23:36.245Z,9.77
2023-11-07T20:26:06.478Z,13.63
2023-11-07T20:28:34.772Z,13.97
2023-11-07T20:31:04.980Z,14.73
2023-11-07T20:33:41.584Z,12.93
2023-11-07T20:36:20.613Z,12.37
2023-11-07T20:38:54.218Z,12.60
2023-11-07T20:41:22.250Z,14.70
2023-11-07T20:43:51.423Z,21.43
2023-11-07T20:46:33.049Z,15.07
2023-11-07T20:49:05.083Z,14.77
2023-11-07T20:51:33.497Z,16.60
2023-11-07T20:54:05.217Z,15.30
2023-11-07T20:56:36.098Z,14.53
2023-11-07T20:59:04.393Z,18.57
2023-11-07T21:01:32.543Z,14.57
2023-11-07T21:04:01.300Z,14.07
2023-11-07T21:06:29.234Z,16.00
2023-11-07T21:08:57.011Z,13.20
2023-11-07T21:11:24.254Z,11.80
2023-11-07T21:13:52.710Z,13.57
2023-11-07T21:16:21.047Z,18.00
2023-11-07T21:18:50.574Z,14.27
2023-11-07T21:21:18.180Z,14.63
2023-11-07T21:23:46.351Z,17.73
2023-11-07T21:26:15.221Z,15.27
2023-11-07T21:28:45.958Z,18.10
2023-11-07T21:31:13.990Z,12.10
2023-11-07T21:33:42.362Z,18.07
2023-11-07T21:36:10.602Z,15.00
2023-11-07T21:38:40.167Z,13.20
2023-11-07T21:41:07.535Z,18.20
2023-11-07T21:43:34.797Z,13.67
2023-11-07T21:46:01.852Z,13.83
2023-11-07T21:48:29.398Z,14.37
2023-11-07T21:50:59.009Z,12.97
2023-11-07T21:53:28.851Z,20.27
2023-11-07T21:56:00.146Z,15.37
2023-11-07T21:58:31.821Z,15.70
2023-11-07T22:00:59.114Z,14.67
2023-11-07T22:03:28.162Z,14.67
2023-11-07T22:05:56.538Z,11.47
2023-11-07T22:08:26.915Z,12.57
2023-11-07T22:10:56.017Z,14.80
2023-11-07T22:13:27.927Z,12.13
2023-11-07T22:16:00.417Z,15.50
2023-11-07T22:18:30.027Z,11.60
2023-11-07T22:20:58.378Z,16.00
2023-11-07T22:23:25.387Z,12.60
2023-11-07T22:25:52.811Z,14.97
2023-11-07T22:28:21.894Z,18.77
2023-11-07T22:30:53.904Z,16.67
2023-11-07T22:33:26.273Z,17.00
2023-11-07T22:35:57.189Z,15.87
2023-11-07T22:38:25.853Z,12.30
2023-11-07T22:40:54.980Z,13.20
2023-11-07T22:43:24.592Z,15.30
2023-11-07T22:45:52.370Z,12.00
2023-11-07T22:48:23.391Z,13.83
2023-11-07T22:50:53.586Z,14.10
2023-11-07T22:53:21.892Z,12.07
2023-11-07T22:55:59.776Z,12.37
2023-11-07T22:58:28.902Z,14.70
2023-11-07T23:00:57.581Z,11.30
2023-11-07T23:03:27.080Z,15.20
2023-11-07T23:05:56.719Z,14.60
2023-11-07T23:08:24.022Z,13.73
2023-11-07T23:10:51.882Z,10.87
2023-11-07T23:13:23.943Z,13.57
2023-11-07T23:15:55.490Z,11.37
2023-11-07T23:18:23.447Z,12.83
2023-11-07T23:20:56.422Z,13.40
2023-11-07T23:23:27.178Z,13.17
2023-11-07T23:25:54.350Z,21.13
2023-11-07T23:28:22.043Z,17.30
2023-11-07T23:30:50.423Z,15.93
2023-11-07T23:33:20.015Z,18.03
2023-11-07T23:35:47.517Z,14.37
2023-11-07T23:38:19.471Z,18.40
2023-11-07T23:40:48.523Z,14.83
2023-11-07T23:43:17.394Z,16.90
2023-11-07T23:45:46.177Z,13.50
2023-11-07T23:48:13.658Z,11.73
2023-11-07T23:50:42.268Z,14.23
2023-11-07T23:53:11.410Z,14.30
2023-11-07T23:55:41.090Z,14.53
2023-11-07T23:58:08.122Z,15.37
